createdAt,value
2019-04-01T00:02:27.249Z,2.83
2019-04-01T00:04:56.183Z,2.60
2019-04-01T00:07:24.849Z,2.50
2019-04-01T00:09:53.505Z,2.83
2019-04-01T00:12:22.241Z,2.67
2019-04-01T00:14:50.821Z,2.83
2019-04-01T00:17:19.497Z,3.17
2019-04-01T00:19:48.141Z,3.10
2019-04-01T00:22:16.866Z,3.73
2019-04-01T00:24:45.462Z,2.50
2019-04-01T00:27:14.110Z,2.87
2019-04-01T00:29:42.968Z,2.37
2019-04-01T00:32:11.586Z,2.43
2019-04-01T00:34:40.255Z,2.90
2019-04-01T00:37:08.883Z,2.63
2019-04-01T00:39:37.700Z,2.53
2019-04-01T00:42:14.137Z,3.63
2019-04-01T00:44:42.897Z,3.17
2019-04-01T00:47:13.013Z,2.90
2019-04-01T00:49:41.745Z,2.67
2019-04-01T00:52:10.442Z,2.77
2019-04-01T00:54:39.127Z,2.87
2019-04-01T00:57:07.725Z,3.43
2019-04-01T00:59:36.476Z,3.10
2019-04-01T01:02:05.736Z,3.20
2019-04-01T01:04:34.414Z,3.27
2019-04-01T01:07:03.179Z,3.00
2019-04-01T01:09:31.973Z,2.80
2019-04-01T01:12:00.637Z,3.77
2019-04-01T01:14:29.251Z,2.90
2019-04-01T01:16:57.902Z,2.93
2019-04-01T01:19:26.592Z,3.47
2019-04-01T01:21:55.191Z,2.73
2019-04-01T01:24:23.837Z,3.10
2019-04-01T01:26:52.682Z,2.63
2019-04-01T01:29:21.344Z,3.47
2019-04-01T01:31:49.971Z,2.57
2019-04-01T01:34:18.743Z,3.67
2019-04-01T01:36:47.310Z,3.13
2019-04-01T01:39:15.983Z,3.50
2019-04-01T01:41:44.565Z,3.07
2019-04-01T01:44:13.262Z,3.30
2019-04-01T01:46:41.982Z,3.07
2019-04-01T01:49:10.760Z,3.20
2019-04-01T01:51:39.329Z,2.93
2019-04-01T01:54:07.995Z,2.63
2019-04-01T01:56:36.602Z,3.33
2019-04-01T01:59:05.223Z,3.07
2019-04-01T02:01:33.983Z,3.23
2019-04-01T02:04:02.606Z,3.20
2019-04-01T02:06:31.464Z,2.90
2019-04-01T02:09:00.155Z,2.90
2019-04-01T02:11:28.762Z,2.70
2019-04-01T02:13:57.460Z,2.37
2019-04-01T02:16:26.110Z,3.40
2019-04-01T02:18:54.717Z,2.80
2019-04-01T02:21:23.318Z,2.60
2019-04-01T02:23:51.997Z,3.07
2019-04-01T02:26:20.683Z,3.33
2019-04-01T02:28:49.302Z,3.23
2019-04-01T02:31:18.259Z,3.10
2019-04-01T02:33:46.899Z,2.77
2019-04-01T02:36:15.564Z,2.50
2019-04-01T02:38:44.166Z,3.47
2019-04-01T02:41:12.737Z,2.97
2019-04-01T02:43:41.427Z,2.17
2019-04-01T02:46:10.179Z,3.10
2019-04-01T02:48:38.743Z,3.33
2019-04-01T02:51:07.422Z,3.43
2019-04-01T02:53:36.194Z,3.43
2019-04-01T02:56:05.449Z,3.50
2019-04-01T02:58:34.888Z,2.90
2019-04-01T03:01:03.658Z,3.27
2019-04-01T03:03:32.268Z,3.00
2019-04-01T03:06:00.848Z,3.10
2019-04-01T03:08:29.576Z,3.17
2019-04-01T03:10:58.715Z,4.17
2019-04-01T03:13:27.370Z,3.73
2019-04-01T03:15:56.004Z,2.93
2019-04-01T03:18:24.698Z,3.07
2019-04-01T03:20:53.468Z,3.03
2019-04-01T03:23:22.235Z,3.47
2019-04-01T03:25:50.987Z,2.77
2019-04-01T03:28:19.690Z,3.20
2019-04-01T03:30:48.415Z,2.53
2019-04-01T03:33:17.067Z,3.20
2019-04-01T03:35:46.079Z,3.20
2019-04-01T03:38:14.745Z,3.63
2019-04-01T03:40:43.321Z,2.53
2019-04-01T03:43:12.328Z,2.97
2019-04-01T03:45:41.136Z,2.93
2019-04-01T03:48:09.673Z,3.17
2019-04-01T03:50:38.296Z,3.07
2019-04-01T03:53:06.937Z,2.70
2019-04-01T03:55:35.850Z,3.30
2019-04-01T03:58:04.401Z,3.13
2019-04-01T04:00:33.139Z,3.70
2019-04-01T04:03:02.010Z,3.07
2019-04-01T04:05:30.743Z,2.87
2019-04-01T04:07:59.369Z,2.50
2019-04-01T04:10:28.530Z,2.90
2019-04-01T04:12:57.264Z,2.70
2019-04-01T04:15:26.023Z,3.00
2019-04-01T04:17:55.104Z,3.63
2019-04-01T04:20:23.735Z,3.00
2019-04-01T04:22:52.427Z,4.53
2019-04-01T04:25:21.075Z,4.60
2019-04-01T04:27:49.845Z,3.93
2019-04-01T04:30:19.997Z,3.73
2019-04-01T04:32:48.659Z,4.10
2019-04-01T04:35:17.316Z,7.00
2019-04-01T04:37:46.018Z,9.53
2019-04-01T04:40:14.802Z,9.43
2019-04-01T04:42:43.581Z,7.70
2019-04-01T04:45:12.397Z,6.03
2019-04-01T04:47:41.119Z,4.80
2019-04-01T04:50:09.885Z,4.20
2019-04-01T04:52:38.528Z,4.23
2019-04-01T04:55:07.458Z,5.07
2019-04-01T04:57:36.106Z,4.80
2019-04-01T05:00:08.254Z,5.00
2019-04-01T05:02:37.202Z,4.60
2019-04-01T05:05:07.236Z,4.70
2019-04-01T05:07:36.435Z,4.40
2019-04-01T05:10:07.693Z,4.43
2019-04-01T05:12:36.355Z,3.77
2019-04-01T05:15:07.623Z,4.20
2019-04-01T05:17:38.086Z,3.37
2019-04-01T05:20:06.848Z,3.07
2019-04-01T05:22:37.142Z,4.00
2019-04-01T05:25:06.345Z,4.00
2019-04-01T05:27:37.538Z,4.20
2019-04-01T05:30:07.179Z,3.40
2019-04-01T05:32:37.852Z,3.50
2019-04-01T05:35:19.596Z,4.00
2019-04-01T05:37:48.445Z,6.10
2019-04-01T05:40:17.165Z,3.83
2019-04-01T05:42:46.101Z,5.17
2019-04-01T05:45:14.763Z,5.40
2019-04-01T05:47:45.203Z,3.70
2019-04-01T05:50:14.080Z,4.37
2019-04-01T05:52:42.816Z,3.92
2019-04-01T05:55:13.393Z,3.77
2019-04-01T05:57:45.360Z,3.80
2019-04-01T06:00:16.098Z,3.35
2019-04-01T06:02:44.926Z,3.25
2019-04-01T06:05:13.734Z,3.50
2019-04-01T06:07:43.176Z,3.60
2019-04-01T06:10:12.046Z,3.65
2019-04-01T06:12:40.688Z,4.17
2019-04-01T06:15:09.941Z,3.60
2019-04-01T06:17:38.628Z,4.00
2019-04-01T06:20:10.580Z,4.08
2019-04-01T06:22:39.934Z,4.10
2019-04-01T06:25:08.773Z,4.42
2019-04-01T06:27:37.749Z,4.10
2019-04-01T06:30:07.718Z,4.35
2019-04-01T06:32:36.351Z,4.40
2019-04-01T06:35:06.660Z,3.77
2019-04-01T06:37:35.654Z,4.62
2019-04-01T06:40:08.439Z,3.65
2019-04-01T06:42:37.194Z,4.03
2019-04-01T06:45:07.544Z,4.03
2019-04-01T06:47:36.321Z,3.67
2019-04-01T06:50:07.383Z,3.50
2019-04-01T06:52:37.070Z,3.02
2019-04-01T06:55:06.599Z,3.50
2019-04-01T06:57:35.364Z,3.52
2019-04-01T07:00:06.685Z,3.12
2019-04-01T07:02:35.341Z,3.72
2019-04-01T07:05:05.519Z,3.98
2019-04-01T07:07:34.606Z,4.00
2019-04-01T07:10:03.823Z,3.27
2019-04-01T07:12:32.597Z,3.40
2019-04-01T07:15:01.479Z,3.62
2019-04-01T07:17:30.250Z,3.10
2019-04-01T07:19:59.187Z,4.05
2019-04-01T07:22:27.947Z,4.60
2019-04-01T07:24:56.899Z,3.37
2019-04-01T07:27:25.662Z,3.52
2019-04-01T07:29:54.393Z,3.25
2019-04-01T07:32:23.062Z,2.98
2019-04-01T07:34:51.969Z,2.20
2019-04-01T07:37:20.678Z,3.27
2019-04-01T07:39:49.472Z,3.00
2019-04-01T07:42:18.452Z,2.67
2019-04-01T07:44:47.269Z,2.17
2019-04-01T07:47:16.254Z,2.55
2019-04-01T07:49:44.983Z,2.42
2019-04-01T07:52:13.725Z,2.20
2019-04-01T07:54:42.649Z,2.98
2019-04-01T07:57:11.405Z,2.47
2019-04-01T07:59:40.277Z,2.53
2019-04-01T08:02:08.937Z,2.35
2019-04-01T08:04:37.733Z,1.87
2019-04-01T08:07:06.500Z,1.87
2019-04-01T08:09:35.384Z,2.15
2019-04-01T08:12:04.139Z,2.10
2019-04-01T08:14:32.883Z,1.95
2019-04-01T08:17:01.677Z,2.22
2019-04-01T08:19:30.330Z,1.87
2019-04-01T08:21:59.093Z,2.35
2019-04-01T08:24:27.863Z,1.67
2019-04-01T08:26:58.618Z,1.60
2019-04-01T08:29:30.428Z,1.80
2019-04-01T08:31:57.716Z,1.47
2019-04-01T08:34:26.576Z,1.50
2019-04-01T08:36:59.233Z,2.33
2019-04-01T08:39:28.030Z,1.92
2019-04-01T08:41:56.765Z,1.75
2019-04-01T08:44:25.615Z,1.50
2019-04-01T08:46:54.311Z,1.72
2019-04-01T08:49:23.085Z,2.02
2019-04-01T08:51:51.964Z,2.30
2019-04-01T08:54:20.605Z,1.65
2019-04-01T08:56:49.321Z,1.65
2019-04-01T08:59:18.095Z,1.92
2019-04-01T09:01:47.121Z,2.02
2019-04-01T09:04:16.999Z,2.40
2019-04-01T09:06:45.677Z,1.92
2019-04-01T09:09:14.369Z,1.90
2019-04-01T09:11:43.868Z,2.67
2019-04-01T09:14:13.209Z,2.20
2019-04-01T09:16:43.518Z,1.90
2019-04-01T09:19:12.161Z,1.75
2019-04-01T09:21:40.960Z,2.15
2019-04-01T09:24:09.685Z,2.02
2019-04-01T09:26:38.389Z,1.30
2019-04-01T09:29:07.057Z,1.02
2019-04-01T09:31:35.739Z,1.17
2019-04-01T09:34:04.510Z,1.05
2019-04-01T09:36:33.243Z,1.30
2019-04-01T09:39:02.004Z,1.20
2019-04-01T09:41:30.727Z,1.30
2019-04-01T09:43:59.425Z,1.10
2019-04-01T09:46:28.145Z,0.80
2019-04-01T09:48:56.872Z,1.50
2019-04-01T09:51:25.538Z,1.47
2019-04-01T09:53:55.729Z,1.40
2019-04-01T09:56:24.375Z,0.90
2019-04-01T09:58:53.255Z,1.20
2019-04-01T10:01:21.991Z,1.10
2019-04-01T10:03:50.645Z,0.87
2019-04-01T10:06:19.516Z,0.97
2019-04-01T10:08:48.107Z,0.80
2019-04-01T10:11:16.844Z,1.03
2019-04-01T10:13:45.826Z,1.50
2019-04-01T10:16:14.661Z,1.00
2019-04-01T10:18:43.297Z,0.90
2019-04-01T10:21:12.028Z,1.10
2019-04-01T10:24:07.223Z,1.07
2019-04-01T10:26:35.884Z,1.10
2019-04-01T10:29:04.890Z,1.40
2019-04-01T10:31:33.737Z,1.27
2019-04-01T10:34:02.444Z,0.80
2019-04-01T10:36:31.209Z,1.00
2019-04-01T10:39:01.104Z,0.90
2019-04-01T10:41:29.904Z,1.10
2019-04-01T10:43:58.713Z,1.07
2019-04-01T10:46:27.356Z,1.00
2019-04-01T10:48:56.120Z,1.60
2019-04-01T10:51:24.880Z,3.60
2019-04-01T10:53:53.713Z,1.03
2019-04-01T10:56:22.723Z,1.10
2019-04-01T10:58:51.745Z,0.82
2019-04-01T11:01:20.505Z,0.95
2019-04-01T11:03:49.331Z,0.70
2019-04-01T11:06:18.067Z,0.77
2019-04-01T11:08:46.803Z,1.00
2019-04-01T11:11:16.018Z,1.00
2019-04-01T11:13:44.810Z,0.90
2019-04-01T11:16:13.618Z,0.90
2019-04-01T11:18:44.037Z,0.60
2019-04-01T11:21:14.944Z,0.50
2019-04-01T11:23:43.278Z,1.00
2019-04-01T11:26:12.196Z,0.80
2019-04-01T11:28:40.974Z,1.20
2019-04-01T11:31:09.897Z,0.60
2019-04-01T11:33:40.068Z,1.20
2019-04-01T11:36:08.810Z,0.67
2019-04-01T11:38:37.509Z,0.67
2019-04-01T11:41:07.923Z,0.90
2019-04-01T11:43:36.704Z,0.63
2019-04-01T11:46:05.474Z,0.60
2019-04-01T11:49:03.053Z,0.70
2019-04-01T11:51:33.055Z,0.73
2019-04-01T11:53:57.454Z,0.70
2019-04-01T11:56:26.744Z,0.80
2019-04-01T11:58:56.898Z,0.43
2019-04-01T12:01:26.034Z,0.70
2019-04-01T12:03:55.268Z,0.70
2019-04-01T12:06:24.032Z,0.50
2019-04-01T12:08:52.938Z,0.63
2019-04-01T12:11:21.740Z,0.60
2019-04-01T12:13:50.381Z,0.70
2019-04-01T12:16:20.683Z,0.70
2019-04-01T12:18:49.329Z,0.93
2019-04-01T12:21:18.266Z,0.70
2019-04-01T12:23:47.398Z,0.80
2019-04-01T12:26:17.623Z,1.10
2019-04-01T12:28:46.494Z,0.40
2019-04-01T12:31:15.351Z,0.50
2019-04-01T12:33:44.177Z,0.87
2019-04-01T12:36:15.841Z,1.20
2019-04-01T12:38:44.471Z,0.73
2019-04-01T12:41:13.332Z,1.33
2019-04-01T12:43:42.044Z,0.70
2019-04-01T12:46:10.862Z,0.70
2019-04-01T12:48:39.720Z,0.70
2019-04-01T12:51:08.755Z,0.77
2019-04-01T12:53:37.681Z,4.00
2019-04-01T12:56:09.246Z,4.77
2019-04-01T12:58:38.022Z,5.07
2019-04-01T13:01:06.712Z,2.80
2019-04-01T13:03:35.510Z,1.63
2019-04-01T13:06:04.168Z,2.00
2019-04-01T13:08:32.942Z,5.80
2019-04-01T13:11:04.618Z,3.07
2019-04-01T13:13:33.463Z,1.60
2019-04-01T13:16:02.179Z,1.80
2019-04-01T13:18:31.077Z,1.20
2019-04-01T13:21:00.074Z,1.00
2019-04-01T13:23:28.880Z,0.87
2019-04-01T13:25:57.838Z,0.80
2019-04-01T13:28:26.906Z,0.93
2019-04-01T13:30:55.611Z,0.60
2019-04-01T13:33:24.262Z,0.63
2019-04-01T13:35:53.243Z,0.60
2019-04-01T13:38:23.615Z,0.70
2019-04-01T13:40:55.986Z,0.80
2019-04-01T13:43:24.703Z,0.70
2019-04-01T13:45:53.464Z,0.90
2019-04-01T13:48:22.134Z,0.70
2019-04-01T13:50:50.902Z,0.83
2019-04-01T13:53:19.695Z,0.70
2019-04-01T13:55:48.355Z,0.70
2019-04-01T13:58:17.737Z,0.80
2019-04-01T14:00:48.198Z,1.00
2019-04-01T14:03:17.022Z,1.10
2019-04-01T14:05:45.941Z,0.80
2019-04-01T14:08:19.266Z,0.80
2019-04-01T14:10:48.327Z,0.40
2019-04-01T14:13:16.981Z,0.77
2019-04-01T14:15:45.592Z,0.33
2019-04-01T14:18:21.879Z,0.50
2019-04-01T14:20:49.634Z,0.50
2019-04-01T14:23:18.601Z,0.53
2019-04-01T14:25:47.440Z,0.60
2019-04-01T14:28:17.780Z,0.80
2019-04-01T14:30:46.720Z,0.53
2019-04-01T14:33:16.623Z,0.70
2019-04-01T14:35:45.402Z,0.80
2019-04-01T14:38:16.469Z,0.73
2019-04-01T14:40:47.510Z,0.50
2019-04-01T14:43:16.228Z,0.70
2019-04-01T14:45:45.083Z,0.43
2019-04-01T14:48:14.209Z,0.50
2019-04-01T14:50:42.705Z,0.40
2019-04-01T14:53:11.475Z,0.50
2019-04-01T14:55:40.197Z,1.10
2019-04-01T14:58:10.981Z,0.70
2019-04-01T15:00:39.579Z,1.80
2019-04-01T15:03:08.390Z,2.00
2019-04-01T15:05:45.480Z,3.70
2019-04-01T15:08:14.403Z,1.10
2019-04-01T15:10:44.472Z,1.13
2019-04-01T15:13:13.245Z,1.00
2019-04-01T15:15:41.968Z,1.07
2019-04-01T15:18:12.429Z,1.73
2019-04-01T15:20:41.047Z,1.13
2019-04-01T15:23:09.726Z,0.77
2019-04-01T15:25:38.443Z,1.20
2019-04-01T15:28:07.111Z,0.50
2019-04-01T15:30:35.769Z,0.40
2019-04-01T15:33:04.676Z,0.87
2019-04-01T15:35:33.229Z,0.63
2019-04-01T15:38:01.848Z,0.90
2019-04-01T15:40:33.185Z,0.57
2019-04-01T15:43:01.412Z,0.60
2019-04-01T15:45:31.414Z,0.80
2019-04-01T15:48:00.177Z,1.03
2019-04-01T15:50:29.235Z,0.50
2019-04-01T15:52:58.096Z,1.07
2019-04-01T15:55:26.862Z,0.80
2019-04-01T15:57:55.600Z,0.90
2019-04-01T16:00:24.633Z,0.97
2019-04-01T16:02:53.434Z,0.70
2019-04-01T16:05:22.171Z,0.73
2019-04-01T16:07:50.846Z,0.87
2019-04-01T16:10:20.904Z,0.80
2019-04-01T16:12:49.817Z,0.87
2019-04-01T16:15:18.575Z,0.90
2019-04-01T16:17:47.623Z,0.90
2019-04-01T16:20:17.818Z,0.80
2019-04-01T16:22:46.558Z,1.20
2019-04-01T16:25:15.278Z,1.23
2019-04-01T16:27:44.303Z,1.10
2019-04-01T16:30:13.128Z,1.03
2019-04-01T16:32:41.982Z,1.37
2019-04-01T16:35:10.769Z,1.57
2019-04-01T16:37:40.991Z,1.50
2019-04-01T16:40:13.087Z,1.00
2019-04-01T16:42:41.910Z,0.90
2019-04-01T16:45:13.402Z,1.17
2019-04-01T16:47:42.309Z,1.00
2019-04-01T16:50:11.408Z,1.00
2019-04-01T16:52:40.534Z,1.30
2019-04-01T16:55:09.972Z,1.90
2019-04-01T16:57:41.977Z,1.50
2019-04-01T17:00:14.662Z,1.20
2019-04-01T17:02:43.381Z,1.10
2019-04-01T17:05:12.304Z,1.30
2019-04-01T17:07:42.637Z,1.20
2019-04-01T17:10:14.320Z,1.30
2019-04-01T17:12:43.166Z,1.53
2019-04-01T17:15:12.048Z,1.87
2019-04-01T17:17:40.878Z,2.33
2019-04-01T17:20:09.725Z,2.00
2019-04-01T17:22:39.101Z,2.70
2019-04-01T17:25:08.193Z,2.80
2019-04-01T17:27:37.041Z,2.93
2019-04-01T17:30:09.974Z,3.40
2019-04-01T17:32:38.846Z,2.80
2019-04-01T17:35:13.263Z,2.70
2019-04-01T17:37:44.144Z,2.90
2019-04-01T17:40:17.414Z,3.80
2019-04-01T17:42:49.080Z,5.57
2019-04-01T17:45:32.960Z,5.27
2019-04-01T17:48:01.776Z,4.50
2019-04-01T17:50:30.941Z,3.83
2019-04-01T17:53:02.942Z,6.23
2019-04-01T17:55:31.713Z,4.63
2019-04-01T17:58:00.658Z,4.00
2019-04-01T18:00:30.955Z,4.03
2019-04-01T18:03:09.574Z,5.03
2019-04-01T18:05:38.341Z,4.57
2019-04-01T18:08:08.360Z,5.73
2019-04-01T18:10:37.070Z,7.10
2019-04-01T18:13:05.876Z,6.33
2019-04-01T18:15:34.705Z,5.73
2019-04-01T18:18:03.394Z,6.07
2019-04-01T18:20:33.456Z,5.97
2019-04-01T18:23:02.780Z,7.00
2019-04-01T18:25:32.021Z,6.43
2019-04-01T18:28:00.671Z,6.67
2019-04-01T18:30:29.424Z,6.10
2019-04-01T18:32:58.114Z,6.27
2019-04-01T18:35:26.882Z,7.40
2019-04-01T18:37:55.493Z,7.33
2019-04-01T18:40:32.457Z,6.83
2019-04-01T18:42:54.753Z,6.90
2019-04-01T18:45:23.616Z,7.00
2019-04-01T18:47:52.299Z,6.73
2019-04-01T18:50:21.135Z,7.73
2019-04-01T18:52:49.926Z,7.57
2019-04-01T18:55:18.732Z,7.47
2019-04-01T18:57:47.608Z,7.83
2019-04-01T19:00:18.279Z,8.93
2019-04-01T19:02:47.076Z,9.30
2019-04-01T19:05:15.725Z,9.17
2019-04-01T19:07:44.564Z,9.23
2019-04-01T19:10:13.416Z,9.27
2019-04-01T19:12:42.423Z,10.13
2019-04-01T19:15:11.506Z,10.53
2019-04-01T19:17:40.353Z,11.43
2019-04-01T19:20:11.211Z,12.37
2019-04-01T19:22:40.338Z,11.83
2019-04-01T19:25:10.054Z,11.97
2019-04-01T19:27:38.746Z,14.90
2019-04-01T19:30:08.389Z,13.77
2019-04-01T19:32:38.147Z,15.53
2019-04-01T19:35:09.394Z,14.33
2019-04-01T19:37:38.351Z,15.93
2019-04-01T19:40:07.806Z,18.40
2019-04-01T19:42:39.280Z,20.17
2019-04-01T19:45:07.910Z,19.70
2019-04-01T19:47:36.645Z,19.63
2019-04-01T19:50:08.013Z,19.43
2019-04-01T19:52:36.816Z,19.00
2019-04-01T19:55:06.841Z,17.50
2019-04-01T19:57:35.786Z,18.10
2019-04-01T20:00:12.054Z,20.37
2019-04-01T20:02:40.833Z,21.23
2019-04-01T20:05:09.862Z,23.43
2019-04-01T20:07:38.728Z,24.10
2019-04-01T20:10:08.041Z,24.33
2019-04-01T20:12:37.171Z,26.07
2019-04-01T20:15:11.913Z,30.70
2019-04-01T20:17:41.161Z,31.40
2019-04-01T20:20:10.823Z,31.07
2019-04-01T20:22:39.486Z,30.23
2019-04-01T20:25:08.643Z,32.63
2019-04-01T20:27:37.291Z,37.40
2019-04-01T20:30:09.637Z,37.93
2019-04-01T20:32:38.412Z,38.37
2019-04-01T20:35:22.292Z,34.07
2019-04-01T20:37:39.513Z,36.47
2019-04-01T20:40:08.895Z,30.73
2019-04-01T20:42:37.715Z,28.93
2019-04-01T20:45:11.159Z,31.10
2019-04-01T20:47:40.526Z,31.27
2019-04-01T20:50:09.838Z,27.27
2019-04-01T20:52:38.781Z,27.03
2019-04-01T20:55:10.025Z,25.50
2019-04-01T20:57:38.910Z,27.00
2019-04-01T21:00:09.564Z,27.33
2019-04-01T21:02:38.888Z,25.80
2019-04-01T21:05:08.540Z,26.50
2019-04-01T21:07:37.499Z,25.93
2019-04-01T21:10:07.685Z,25.87
2019-04-01T21:12:37.260Z,25.13
2019-04-01T21:15:08.167Z,24.73
2019-04-01T21:17:36.994Z,24.90
2019-04-01T21:20:07.125Z,25.90
2019-04-01T21:22:36.916Z,24.83
2019-04-01T21:25:07.922Z,24.70
2019-04-01T21:27:36.769Z,24.30
2019-04-01T21:30:10.385Z,23.10
2019-04-01T21:32:41.529Z,24.57
2019-04-01T21:35:10.783Z,21.60
2019-04-01T21:37:39.638Z,22.03
2019-04-01T21:40:08.599Z,24.20
2019-04-01T21:42:37.975Z,22.20
2019-04-01T21:45:09.928Z,22.97
2019-04-01T21:47:38.805Z,23.57
2019-04-01T21:50:08.878Z,22.57
2019-04-01T21:52:39.238Z,22.10
2019-04-01T21:55:10.061Z,24.53
2019-04-01T21:57:38.638Z,22.90
2019-04-01T22:00:17.769Z,23.07
2019-04-01T22:02:45.509Z,20.43
2019-04-01T22:05:14.574Z,21.57
2019-04-01T22:07:44.209Z,19.57
2019-04-01T22:10:14.183Z,20.23
2019-04-01T22:12:43.236Z,20.90
2019-04-01T22:15:11.954Z,19.73
2019-04-01T22:17:40.932Z,21.80
2019-04-01T22:20:10.406Z,20.93
2019-04-01T22:22:40.072Z,21.37
2019-04-01T22:25:08.877Z,22.70
2019-04-01T22:27:37.546Z,22.73
2019-04-01T22:30:07.746Z,22.70
2019-04-01T22:32:37.758Z,24.90
2019-04-01T22:35:08.253Z,25.63
2019-04-01T22:37:41.291Z,25.47
2019-04-01T22:40:10.478Z,24.10
2019-04-01T22:42:39.280Z,22.13
2019-04-01T22:45:08.480Z,22.27
2019-04-01T22:47:37.229Z,23.07
2019-04-01T22:50:07.278Z,24.33
2019-04-01T22:52:35.897Z,22.07
2019-04-01T22:55:05.513Z,22.77
2019-04-01T22:57:34.205Z,23.27
2019-04-01T23:00:02.906Z,22.17
2019-04-01T23:02:31.796Z,21.83
2019-04-01T23:05:00.463Z,22.73
2019-04-01T23:07:29.150Z,20.37
2019-04-01T23:09:58.106Z,21.23
2019-04-01T23:12:27.302Z,20.27
2019-04-01T23:14:55.973Z,19.97
2019-04-01T23:17:24.933Z,20.40
2019-04-01T23:19:53.634Z,18.57
2019-04-01T23:22:22.231Z,19.80
2019-04-01T23:24:50.871Z,18.27
2019-04-01T23:27:19.577Z,17.47
2019-04-01T23:29:48.361Z,17.77
2019-04-01T23:32:17.254Z,18.07
2019-04-01T23:34:46.153Z,15.67
2019-04-01T23:37:14.682Z,15.33
2019-04-01T23:39:43.361Z,15.43
2019-04-01T23:42:12.206Z,16.40
2019-04-01T23:44:40.763Z,15.90
2019-04-01T23:47:09.471Z,16.03
2019-04-01T23:49:40.259Z,16.23
2019-04-01T23:52:08.698Z,15.00
2019-04-01T23:54:37.491Z,14.23
2019-04-01T23:57:06.263Z,15.40
2019-04-01T23:59:34.897Z,15.80
